Time;durP1;ratioP1;P1;durP2;ratioP2;P2;SDS_P1;SDS_P2;PMS_P1;PMS_P2;Temp;Humidity;BMP_temperature;BMP_pressure;BME280_temperature;BME280_humidity;BME280_pressure;Samples;Min_cycle;Max_cycle;Signal;HPM_P1;HPM_P2
2022/05/19 00:12:01;;;;;;;4.33;2.50;;;;;;;9.45;95.21;100269.22;31325814;28;20048;-75
2022/05/19 00:27:03;;;;;;;5.53;2.53;;;;;;;9.21;97.54;100260.22;31354273;28;20052;-74
2022/05/19 00:57:39;;;;;;;5.97;2.77;;;;;;;8.85;100.00;100283.44;31354616;28;20057;-75
2022/05/19 01:12:46;;;;;;;8.20;3.50;;;;;;;8.81;100.00;100302.44;31355515;28;20067;-74
2022/05/19 01:27:49;;;;;;;7.40;3.80;;;;;;;8.71;100.00;100318.78;31320612;28;20052;-74
2022/05/19 01:43:21;;;;;;;9.43;4.20;;;;;;;8.62;100.00;100315.75;31316254;28;20049;-74
2022/05/19 01:58:29;;;;;;;14.10;5.53;;;;;;;8.85;100.00;100329.47;31323914;28;20385;-75
2022/05/19 02:13:33;;;;;;;11.83;4.23;;;;;;;9.07;100.00;100319.97;31329937;28;20501;-74
2022/05/19 02:28:46;;;;;;;10.17;4.63;;;;;;;9.13;100.00;100318.38;31338420;28;20045;-75
2022/05/19 02:43:48;;;;;;;11.70;4.83;;;;;;;9.23;100.00;100333.72;31324510;28;20041;-76
2022/05/19 02:58:50;;;;;;;7.80;3.50;;;;;;;9.68;100.00;100327.44;31211357;28;20049;-74
2022/05/19 03:13:52;;;;;;;12.83;7.27;;;;;;;10.33;100.00;100330.84;31211003;28;20055;-74
2022/05/19 03:28:54;;;;;;;9.63;4.77;;;;;;;10.97;100.00;100330.56;31201546;28;20093;-75
2022/05/19 03:43:56;;;;;;;5.77;3.13;;;;;;;11.41;100.00;100347.59;31226205;28;20049;-75
2022/05/19 03:58:58;;;;;;;4.87;2.63;;;;;;;11.69;100.00;100363.38;31318068;28;20053;-75
2022/05/19 04:14:00;;;;;;;4.43;2.93;;;;;;;11.59;100.00;100380.63;31380972;28;20071;-75
2022/05/19 04:29:03;;;;;;;4.60;3.07;;;;;;;12.56;98.25;100380.94;31331197;28;20053;-76
2022/05/19 04:44:05;;;;;;;19.33;9.53;;;;;;;12.63;98.13;100390.91;31329585;28;20041;-74
2022/05/19 04:59:13;;;;;;;7.77;3.43;;;;;;;13.47;93.64;100386.47;31357613;28;20064;-75
2022/05/19 05:14:17;;;;;;;7.60;3.70;;;;;;;13.65;91.70;100408.59;31350874;28;20053;-74
2022/05/19 05:29:20;;;;;;;6.90;3.63;;;;;;;14.20;89.78;100403.88;31359363;28;20051;-74
2022/05/19 05:44:22;;;;;;;6.23;3.60;;;;;;;14.63;85.92;100398.69;31335110;28;20502;-75
2022/05/19 05:59:24;;;;;;;4.93;3.37;;;;;;;15.04;84.24;100410.66;31355295;28;20071;-76
2022/05/19 06:14:26;;;;;;;7.93;3.27;;;;;;;15.31;82.32;100416.38;31355858;28;20067;-74
2022/05/19 06:29:28;;;;;;;5.90;3.20;;;;;;;16.61;76.94;100425.69;31331115;28;20062;-74
2022/05/19 06:44:37;;;;;;;3.75;2.53;;;;;;;17.27;71.55;100426.16;31302488;28;20132;-79
2022/05/19 06:59:40;;;;;;;3.97;3.03;;;;;;;18.38;69.31;100431.09;31298242;28;20136;-79
2022/05/19 07:14:42;;;;;;;4.57;2.30;;;;;;;19.27;62.33;100426.81;31357787;28;20043;-76
2022/05/19 07:29:44;;;;;;;6.85;2.60;;;;;;;19.33;61.93;100435.19;31309890;28;20040;-78
2022/05/19 07:44:53;;;;;;;5.63;2.63;;;;;;;18.36;62.76;100441.03;31283903;28;20092;-77
2022/05/19 07:59:55;;;;;;;3.40;2.42;;;;;;;19.13;55.48;100438.53;31313399;28;20053;-78
2022/05/19 08:30:27;;;;;;;1.77;1.60;;;;;;;19.97;46.43;100393.31;31322632;28;20057;-77
2022/05/19 08:45:44;;;;;;;1.52;1.10;;;;;;;20.68;40.88;100406.72;31296327;28;20092;-76
2022/05/19 09:00:51;;;;;;;3.25;1.35;;;;;;;20.61;40.79;100379.53;31335342;28;20071;-75
2022/05/19 09:15:54;;;;;;;3.88;1.38;;;;;;;20.61;35.77;100379.53;31330492;28;20059;-79
2022/05/19 09:30:57;;;;;;;1.57;0.80;;;;;;;22.07;33.71;100390.97;31352390;28;20556;-78
2022/05/19 09:46:14;;;;;;;1.60;0.90;;;;;;;20.88;33.71;100402.44;31327008;28;20064;-78
2022/05/19 10:01:28;;;;;;;7.10;1.23;;;;;;;21.58;33.89;100407.81;31296564;28;20564;-81
2022/05/19 10:16:48;;;;;;;1.40;0.93;;;;;;;20.92;34.66;100398.25;31333558;28;20049;-80
2022/05/19 10:32:06;;;;;;;2.30;1.02;;;;;;;23.55;29.43;100405.84;31315399;28;20053;-76
2022/05/19 10:47:54;;;;;;;1.77;0.85;;;;;;;22.15;32.81;100398.81;31304536;28;20091;-78
2022/05/19 11:03:32;;;;;;;1.85;1.00;;;;;;;22.99;30.40;100402.88;31331564;28;20410;-76
2022/05/19 11:18:50;;;;;;;3.38;1.05;;;;;;;22.53;28.18;100398.31;31322689;28;20139;-77
2022/05/19 11:33:54;;;;;;;12.32;7.13;;;;;;;21.90;31.95;100400.34;31304535;28;20057;-77
2022/05/19 12:04:28;;;;;;;4.30;1.70;;;;;;;20.88;38.68;100419.00;31315570;28;20056;-78
2022/05/19 12:20:03;;;;;;;8.60;1.50;;;;;;;20.26;39.72;100414.56;31315346;28;20140;-81
2022/05/19 12:35:10;;;;;;;1.87;1.00;;;;;;;20.08;40.45;100410.78;31342362;28;22306;-78
2022/05/19 12:50:12;;;;;;;2.13;0.98;;;;;;;20.23;39.45;100396.22;31314878;28;20100;-76
2022/05/19 13:05:29;;;;;;;6.35;1.50;;;;;;;20.17;40.42;100406.41;31308220;28;20144;-81
2022/05/19 13:20:34;;;;;;;1.88;1.23;;;;;;;19.70;40.56;100413.63;31323827;28;20061;-77
2022/05/19 13:35:42;;;;;;;9.15;3.05;;;;;;;19.37;40.93;100419.97;31305189;28;20060;-78
2022/05/19 13:50:44;;;;;;;2.20;0.93;;;;;;;19.31;39.57;100416.38;31344926;28;20057;-78
2022/05/19 14:05:47;;;;;;;1.27;0.90;;;;;;;19.36;38.77;100401.97;31342786;28;20053;-76
2022/05/19 14:20:54;;;;;;;2.07;1.30;;;;;;;19.24;39.57;100408.47;31336355;28;20085;-76
2022/05/19 14:36:01;;;;;;;2.05;1.00;;;;;;;18.92;39.08;100417.56;31349992;28;20041;-76
2022/05/19 14:51:13;;;;;;;2.70;1.10;;;;;;;18.78;39.65;100410.00;31333593;28;20626;-77
2022/05/19 15:06:17;;;;;;;1.75;1.08;;;;;;;18.63;39.54;100413.44;31330811;28;20045;-76
2022/05/19 15:21:20;;;;;;;3.25;1.00;;;;;;;18.57;40.04;100415.28;31305420;28;20148;-76
2022/05/19 15:36:23;;;;;;;4.47;1.52;;;;;;;18.37;40.08;100417.81;31320626;28;20514;-78
2022/05/19 15:51:25;;;;;;;1.97;1.00;;;;;;;18.17;40.03;100431.31;31345777;28;20052;-75
2022/05/19 16:06:27;;;;;;;1.98;0.90;;;;;;;18.15;39.84;100428.28;31352016;28;20390;-77
2022/05/19 16:21:31;;;;;;;3.17;1.40;;;;;;;17.89;40.54;100428.63;31354123;28;20761;-76
2022/05/19 16:36:36;;;;;;;7.53;2.00;;;;;;;17.50;41.82;100429.53;31362322;28;20083;-77
2022/05/19 16:51:38;;;;;;;4.53;2.67;;;;;;;17.20;42.67;100428.47;31325065;28;20518;-78
2022/05/19 17:06:40;;;;;;;5.55;2.80;;;;;;;16.98;43.07;100442.31;31354317;28;20061;-78
2022/05/19 17:21:42;;;;;;;4.00;1.77;;;;;;;16.79;43.64;100438.72;31348828;28;20112;-75
2022/05/19 17:36:44;;;;;;;34.60;18.20;;;;;;;16.63;44.24;100445.22;31322878;28;20061;-76
2022/05/19 17:51:47;;;;;;;2.65;1.75;;;;;;;16.49;44.37;100458.69;31324840;28;20061;-77
2022/05/19 18:06:49;;;;;;;6.40;1.40;;;;;;;16.50;44.10;100476.66;31334596;28;20056;-77
2022/05/19 18:21:51;;;;;;;2.37;1.40;;;;;;;16.52;44.04;100485.97;31336305;28;20049;-77
2022/05/19 18:36:53;;;;;;;1.77;1.13;;;;;;;16.40;44.12;100489.56;31325848;28;20056;-76
2022/05/19 18:51:55;;;;;;;1.65;1.23;;;;;;;16.27;44.20;100488.88;31338884;28;20498;-76
2022/05/19 19:06:57;;;;;;;3.28;1.40;;;;;;;16.24;44.15;100482.31;31342652;28;20060;-79
2022/05/19 19:22:01;;;;;;;4.18;1.10;;;;;;;16.28;44.31;100471.22;31341819;28;20068;-79
2022/05/19 19:37:03;;;;;;;5.77;1.70;;;;;;;16.24;44.45;100484.28;31333562;28;20084;-79
2022/05/19 19:52:05;;;;;;;1.77;1.30;;;;;;;16.10;45.01;100473.84;31244353;28;20068;-78
2022/05/19 20:07:07;;;;;;;5.43;1.42;;;;;;;15.99;45.31;100471.50;31196657;28;20496;-78
2022/05/19 20:22:09;;;;;;;11.20;4.03;;;;;;;15.87;45.85;100470.34;31233219;28;20073;-80
2022/05/19 20:37:11;;;;;;;2.80;1.60;;;;;;;15.75;46.39;100468.44;31193703;28;20057;-77
2022/05/19 20:52:14;;;;;;;2.75;1.63;;;;;;;15.62;47.35;100481.41;31291770;28;20059;-78
2022/05/19 21:07:16;;;;;;;5.20;1.77;;;;;;;15.50;47.61;100473.97;31346708;28;20053;-79
2022/05/19 21:22:19;;;;;;;6.33;1.67;;;;;;;15.30;47.91;100483.22;31341128;28;20068;-79
2022/05/19 21:37:21;;;;;;;4.90;1.10;;;;;;;15.13;48.47;100468.16;31332370;28;20055;-78
2022/05/19 22:07:43;;;;;;;1.50;1.17;;;;;;;14.93;50.08;100464.91;31371094;28;20063;-78
2022/05/19 22:22:46;;;;;;;18.40;4.40;;;;;;;14.86;50.76;100448.75;31317651;28;20049;-78
2022/05/19 22:37:49;;;;;;;5.27;1.27;;;;;;;14.63;52.33;100445.16;31326828;28;20053;-78
2022/05/19 22:52:52;;;;;;;3.27;1.47;;;;;;;14.58;53.24;100459.34;31327899;28;20398;-79
2022/05/19 23:07:55;;;;;;;6.07;2.23;;;;;;;14.42;54.55;100459.44;31331111;28;20052;-77
2022/05/19 23:22:57;;;;;;;4.30;2.00;;;;;;;14.16;55.72;100472.28;31350268;28;20052;-77
2022/05/19 23:38:06;;;;;;;2.10;1.53;;;;;;;14.12;56.67;100473.56;31330870;28;20119;-78
2022/05/19 23:53:08;;;;;;;4.57;2.13;;;;;;;14.15;57.06;100478.16;31337973;28;20085;-78
